Time;durP1;ratioP1;P1;durP2;ratioP2;P2;SDS_P1;SDS_P2;PMS_P1;PMS_P2;Temp;Humidity;BMP_temperature;BMP_pressure;BME280_temperature;BME280_humidity;BME280_pressure;Samples;Min_cycle;Max_cycle;Signal;HPM_P1;HPM_P2
2022/10/16 00:01:46;;;;;;;13.23;8.88;;;17.30;99.90;;;;;;5072338;28;20410;-76
2022/10/16 00:04:14;;;;;;;15.57;8.77;;;17.30;99.90;;;;;;5090354;28;20052;-71
2022/10/16 00:06:42;;;;;;;12.38;9.07;;;17.40;99.90;;;;;;5088867;28;20111;-71
2022/10/16 00:09:10;;;;;;;20.10;9.52;;;17.40;99.90;;;;;;5072118;28;20040;-70
2022/10/16 00:11:40;;;;;;;14.10;8.73;;;17.30;99.90;;;;;;5071436;28;20468;-72
2022/10/16 00:14:11;;;;;;;16.05;9.95;;;17.40;99.90;;;;;;5090195;28;20777;-70
2022/10/16 00:16:38;;;;;;;18.67;10.80;;;17.30;99.90;;;;;;5088842;28;20054;-70
2022/10/16 00:19:06;;;;;;;17.30;9.82;;;17.30;99.90;;;;;;5088943;28;20090;-72
2022/10/16 00:21:34;;;;;;;15.15;9.65;;;17.30;99.90;;;;;;5089406;28;20166;-73
2022/10/16 00:24:20;;;;;;;17.45;10.10;;;17.30;99.90;;;;;;5090555;28;20051;-73
2022/10/16 00:26:49;;;;;;;18.23;9.38;;;17.30;99.90;;;;;;5090333;28;20529;-71
2022/10/16 00:29:17;;;;;;;16.55;11.50;;;17.30;99.90;;;;;;5070597;28;20074;-73
2022/10/16 00:31:44;;;;;;;15.38;10.27;;;17.30;99.90;;;;;;5087758;28;20048;-71
2022/10/16 00:34:12;;;;;;;15.32;10.65;;;17.30;99.90;;;;;;5090365;28;20052;-71
2022/10/16 00:36:40;;;;;;;19.48;11.32;;;17.30;99.90;;;;;;5089067;28;20115;-70
2022/10/16 00:39:08;;;;;;;18.65;11.35;;;17.30;99.90;;;;;;5055593;28;20151;-70
2022/10/16 00:41:35;;;;;;;16.08;10.43;;;17.30;99.90;;;;;;5088592;28;20052;-70
2022/10/16 00:44:41;;;;;;;18.10;12.25;;;17.30;99.90;;;;;;5071798;28;20073;-74
2022/10/16 00:47:18;;;;;;;19.08;13.05;;;17.30;99.90;;;;;;5072275;28;20832;-72
2022/10/16 00:49:49;;;;;;;14.02;11.20;;;17.30;99.90;;;;;;5071161;28;20051;-70
2022/10/16 00:52:17;;;;;;;17.23;12.73;;;17.30;99.90;;;;;;5088395;28;20127;-70
2022/10/16 00:54:47;;;;;;;16.77;11.13;;;17.30;99.90;;;;;;5071886;28;20154;-71
2022/10/16 00:57:14;;;;;;;17.55;11.45;;;17.30;99.90;;;;;;5088515;28;20484;-78
2022/10/16 00:59:42;;;;;;;18.58;12.45;;;17.30;99.90;;;;;;5054858;28;20044;-73
2022/10/16 01:02:14;;;;;;;20.73;12.60;;;17.30;99.90;;;;;;5088289;28;20048;-71
2022/10/16 01:04:50;;;;;;;20.00;12.32;;;17.20;99.90;;;;;;5071456;28;20036;-72
2022/10/16 01:07:35;;;;;;;20.73;12.93;;;17.30;99.90;;;;;;5087883;28;20043;-74
2022/10/16 01:10:21;;;;;;;21.90;12.55;;;17.30;99.90;;;;;;5087275;28;20120;-70
2022/10/16 01:13:06;;;;;;;22.77;13.50;;;17.30;99.90;;;;;;5086474;28;20117;-76
2022/10/16 01:15:58;;;;;;;25.00;12.90;;;17.30;99.90;;;;;;5070689;28;20378;-71
2022/10/16 01:18:47;;;;;;;19.83;13.27;;;17.20;99.90;;;;;;5071683;28;20138;-74
2022/10/16 01:21:18;;;;;;;20.65;12.98;;;17.20;99.90;;;;;;5088279;28;20044;-74
2022/10/16 01:24:00;;;;;;;19.92;13.40;;;17.20;99.90;;;;;;5088022;28;20048;-70
2022/10/16 01:26:54;;;;;;;19.00;12.38;;;17.20;99.90;;;;;;5070909;28;20047;-71
2022/10/16 01:29:51;;;;;;;19.83;12.55;;;17.20;99.90;;;;;;5089354;28;20051;-72
2022/10/16 01:32:40;;;;;;;19.88;11.98;;;17.10;99.90;;;;;;5067630;28;20055;-72
2022/10/16 01:35:29;;;;;;;23.65;13.05;;;17.10;99.90;;;;;;5070862;28;20097;-71
2022/10/16 01:38:30;;;;;;;20.67;12.38;;;17.10;99.90;;;;;;5088740;28;20040;-74
2022/10/16 01:41:03;;;;;;;22.98;13.30;;;17.10;99.90;;;;;;5087765;28;20043;-70
2022/10/16 01:43:39;;;;;;;19.45;12.25;;;17.10;99.90;;;;;;5070590;28;20048;-73
2022/10/16 01:46:09;;;;;;;20.50;13.52;;;17.10;99.90;;;;;;5088716;28;20052;-71
2022/10/16 01:48:38;;;;;;;22.48;13.27;;;17.00;99.90;;;;;;5053645;28;20076;-72
2022/10/16 01:51:12;;;;;;;25.27;14.18;;;17.00;99.90;;;;;;5088464;28;20040;-71
2022/10/16 01:53:45;;;;;;;21.77;12.57;;;17.00;99.90;;;;;;5087059;28;20555;-70
2022/10/16 01:56:16;;;;;;;20.25;14.73;;;17.00;99.90;;;;;;5087193;28;20048;-71
2022/10/16 01:58:52;;;;;;;20.85;13.68;;;17.00;99.90;;;;;;5086917;28;20043;-72
2022/10/16 02:01:22;;;;;;;24.00;15.18;;;17.00;99.90;;;;;;5087222;28;20113;-74
2022/10/16 02:03:56;;;;;;;24.63;13.32;;;17.00;99.90;;;;;;5087306;28;20089;-73
2022/10/16 02:06:25;;;;;;;21.38;12.80;;;17.00;99.90;;;;;;5087181;28;20075;-71
2022/10/16 02:08:54;;;;;;;24.77;15.23;;;17.00;99.90;;;;;;5053873;28;20052;-72
2022/10/16 02:11:21;;;;;;;21.90;14.93;;;17.00;99.90;;;;;;5088900;28;20055;-74
2022/10/16 02:13:54;;;;;;;27.90;14.63;;;16.90;99.90;;;;;;5086616;28;20038;-70
2022/10/16 02:16:32;;;;;;;24.05;14.68;;;16.90;99.90;;;;;;5087990;28;20044;-74
2022/10/16 02:19:00;;;;;;;20.58;13.75;;;16.90;99.90;;;;;;5069006;28;20380;-70
2022/10/16 02:21:39;;;;;;;24.45;15.07;;;16.80;99.90;;;;;;5053375;28;20040;-71
2022/10/16 02:24:29;;;;;;;20.52;14.85;;;16.80;99.90;;;;;;5087000;28;20047;-71
2022/10/16 02:26:56;;;;;;;22.33;13.70;;;16.80;99.90;;;;;;5069852;28;20076;-73
2022/10/16 02:29:26;;;;;;;23.90;13.52;;;16.70;99.90;;;;;;5086776;28;20844;-74
2022/10/16 02:32:01;;;;;;;17.08;12.70;;;16.70;99.90;;;;;;5086190;28;20519;-70
2022/10/16 02:34:31;;;;;;;22.90;14.83;;;16.60;99.90;;;;;;5086276;28;20399;-71
2022/10/16 02:37:01;;;;;;;19.13;12.80;;;16.60;99.90;;;;;;5086253;28;20051;-72
2022/10/16 02:39:30;;;;;;;20.35;13.85;;;16.60;99.90;;;;;;5085210;28;20040;-73
2022/10/16 02:41:57;;;;;;;22.45;15.77;;;16.50;99.90;;;;;;5086554;28;20440;-70
2022/10/16 02:44:25;;;;;;;20.30;13.63;;;16.50;99.90;;;;;;5084425;28;20047;-70
2022/10/16 02:46:53;;;;;;;22.83;14.68;;;16.50;99.90;;;;;;5068598;28;20094;-72
2022/10/16 02:49:20;;;;;;;21.20;14.50;;;16.50;99.90;;;;;;5085208;28;20063;-74
2022/10/16 02:51:48;;;;;;;23.17;14.30;;;16.50;99.90;;;;;;5085530;28;20394;-74
2022/10/16 02:54:16;;;;;;;23.92;14.82;;;16.50;99.90;;;;;;5085778;28;20059;-72
2022/10/16 02:56:43;;;;;;;22.80;14.80;;;16.50;99.90;;;;;;5087766;28;20347;-70
2022/10/16 02:59:11;;;;;;;27.02;15.23;;;16.50;99.90;;;;;;5085957;28;20059;-73
2022/10/16 03:01:40;;;;;;;26.55;15.23;;;16.50;99.90;;;;;;5052828;28;20062;-71
2022/10/16 03:04:07;;;;;;;21.55;14.25;;;16.50;99.90;;;;;;5085201;28;20576;-72
2022/10/16 03:06:37;;;;;;;20.23;14.32;;;16.50;99.90;;;;;;5086566;28;20051;-74
2022/10/16 03:09:04;;;;;;;22.00;14.40;;;16.40;99.90;;;;;;5069175;28;20052;-70
2022/10/16 03:11:32;;;;;;;25.17;15.10;;;16.40;99.90;;;;;;5069654;28;20101;-71
2022/10/16 03:14:00;;;;;;;27.33;14.23;;;16.40;99.90;;;;;;5086101;28;20560;-73
2022/10/16 03:16:28;;;;;;;24.10;15.77;;;16.40;99.90;;;;;;5069507;28;20051;-72
2022/10/16 03:18:55;;;;;;;24.77;16.27;;;16.40;99.90;;;;;;5085208;28;20040;-71
2022/10/16 03:21:23;;;;;;;26.10;15.73;;;16.40;99.90;;;;;;5068287;28;20052;-72
2022/10/16 03:23:50;;;;;;;21.98;14.80;;;16.40;99.90;;;;;;5068435;28;20052;-73
2022/10/16 03:26:18;;;;;;;25.48;15.63;;;16.30;99.90;;;;;;5086492;28;20491;-71
2022/10/16 03:28:46;;;;;;;19.98;14.13;;;16.30;99.90;;;;;;5068809;28;20040;-70
2022/10/16 03:31:14;;;;;;;22.63;14.90;;;16.30;99.90;;;;;;5068238;28;20351;-72
2022/10/16 03:33:41;;;;;;;27.02;16.60;;;16.30;99.90;;;;;;5085310;28;20036;-72
2022/10/16 03:36:09;;;;;;;28.58;17.52;;;16.30;99.90;;;;;;5068270;28;20040;-71
2022/10/16 03:38:37;;;;;;;23.40;14.68;;;16.20;99.90;;;;;;5084666;28;20464;-74
2022/10/16 03:41:08;;;;;;;25.27;16.73;;;16.20;99.90;;;;;;5086819;28;20048;-71
2022/10/16 03:43:35;;;;;;;23.27;16.73;;;16.20;99.90;;;;;;5067851;28;20867;-74
2022/10/16 03:46:03;;;;;;;30.23;17.33;;;16.20;99.90;;;;;;5086296;28;20059;-70
2022/10/16 03:48:31;;;;;;;27.52;18.35;;;16.30;99.90;;;;;;5084594;28;20115;-73
2022/10/16 03:50:59;;;;;;;29.20;17.58;;;16.30;99.90;;;;;;5068535;28;20164;-72
2022/10/16 03:53:27;;;;;;;29.52;17.58;;;16.30;99.90;;;;;;5086405;28;20357;-71
2022/10/16 03:55:54;;;;;;;27.88;18.75;;;16.30;99.90;;;;;;5069002;28;20036;-70
2022/10/16 03:58:22;;;;;;;32.67;20.10;;;16.30;99.90;;;;;;5068472;28;20569;-72
2022/10/16 04:00:50;;;;;;;29.23;20.52;;;16.30;99.90;;;;;;5085892;28;20113;-73
2022/10/16 04:03:18;;;;;;;33.35;21.33;;;16.40;99.90;;;;;;5066785;28;20048;-72
2022/10/16 04:05:46;;;;;;;36.63;21.25;;;16.40;99.90;;;;;;5067492;28;20048;-73
2022/10/16 04:08:14;;;;;;;41.65;21.67;;;16.50;99.90;;;;;;5085524;28;20048;-71
2022/10/16 04:10:45;;;;;;;35.05;20.80;;;16.40;99.90;;;;;;5085541;28;20040;-72
2022/10/16 04:13:13;;;;;;;33.55;21.80;;;16.40;99.90;;;;;;5084396;28;20052;-72
2022/10/16 04:15:41;;;;;;;34.80;21.50;;;16.50;99.90;;;;;;5084580;28;20047;-71
2022/10/16 04:18:09;;;;;;;37.70;22.33;;;16.50;99.90;;;;;;5084656;28;20130;-72
2022/10/16 04:20:36;;;;;;;33.95;20.25;;;16.50;99.90;;;;;;5068138;28;20137;-72
2022/10/16 04:23:04;;;;;;;36.17;23.55;;;16.50;99.90;;;;;;5084485;28;20122;-74
2022/10/16 04:25:32;;;;;;;34.53;19.98;;;16.60;99.90;;;;;;5067634;28;20511;-71
2022/10/16 04:28:00;;;;;;;36.35;22.40;;;16.50;99.90;;;;;;5084427;28;20056;-71
2022/10/16 04:30:27;;;;;;;35.05;20.45;;;16.60;99.90;;;;;;5067236;28;20146;-71
2022/10/16 04:32:55;;;;;;;40.60;21.50;;;16.50;99.90;;;;;;5067339;28;20090;-71
2022/10/16 04:35:23;;;;;;;35.92;21.60;;;16.60;99.90;;;;;;5084464;28;20052;-72
2022/10/16 04:37:51;;;;;;;30.10;20.50;;;16.50;99.90;;;;;;5085052;28;20814;-70
2022/10/16 04:40:18;;;;;;;36.85;21.63;;;16.50;99.90;;;;;;5084289;28;20663;-70
2022/10/16 04:42:46;;;;;;;37.53;21.88;;;16.50;99.90;;;;;;5085463;28;20131;-71
2022/10/16 04:45:13;;;;;;;32.03;19.90;;;16.60;99.90;;;;;;5084688;28;20125;-74
2022/10/16 04:47:42;;;;;;;29.25;20.20;;;16.50;99.90;;;;;;5086877;28;20193;-73
2022/10/16 04:50:10;;;;;;;38.75;20.55;;;16.50;99.90;;;;;;5087952;28;20185;-73
2022/10/16 04:52:38;;;;;;;33.38;21.73;;;16.50;99.90;;;;;;5089015;28;20051;-70
2022/10/16 04:55:06;;;;;;;31.00;20.92;;;16.50;99.90;;;;;;5090001;28;20048;-70
2022/10/16 04:57:34;;;;;;;31.88;20.05;;;16.50;99.90;;;;;;5071270;28;20405;-72
2022/10/16 05:00:03;;;;;;;30.98;20.60;;;16.50;99.90;;;;;;5088093;28;20051;-72
2022/10/16 05:02:30;;;;;;;31.98;20.60;;;16.40;99.90;;;;;;5087814;28;20048;-75
2022/10/16 05:04:58;;;;;;;32.35;21.38;;;16.50;99.90;;;;;;5071115;28;20536;-71
2022/10/16 05:07:26;;;;;;;34.58;21.48;;;16.40;99.90;;;;;;5087668;28;20055;-71
2022/10/16 05:09:53;;;;;;;33.42;20.10;;;16.50;99.90;;;;;;5070384;28;20052;-73
2022/10/16 05:12:21;;;;;;;30.10;19.23;;;16.50;99.90;;;;;;5089366;28;20066;-71
2022/10/16 05:14:49;;;;;;;35.78;22.45;;;16.50;99.90;;;;;;5087448;28;20051;-73
2022/10/16 05:17:16;;;;;;;32.35;20.95;;;16.60;99.90;;;;;;5069748;28;20478;-72
2022/10/16 05:19:44;;;;;;;34.03;21.45;;;16.70;99.90;;;;;;5087444;28;20105;-71
2022/10/16 05:22:12;;;;;;;34.88;22.60;;;16.80;99.90;;;;;;5088726;28;20177;-72
2022/10/16 05:24:39;;;;;;;36.85;21.55;;;16.90;99.90;;;;;;5070524;28;20051;-73
2022/10/16 05:27:07;;;;;;;36.17;20.73;;;17.00;99.90;;;;;;5087009;28;20055;-70
2022/10/16 05:29:35;;;;;;;35.58;21.05;;;17.10;99.90;;;;;;5088083;28;20068;-73
2022/10/16 05:32:02;;;;;;;30.30;21.58;;;17.20;99.90;;;;;;5070737;28;20056;-71
2022/10/16 05:34:33;;;;;;;34.00;21.08;;;17.40;99.90;;;;;;5087673;28;20040;-71
2022/10/16 05:37:00;;;;;;;31.27;19.63;;;17.50;99.90;;;;;;5070302;28;20106;-76
2022/10/16 05:39:30;;;;;;;35.05;21.98;;;17.60;99.90;;;;;;5088008;28;20505;-70
2022/10/16 05:41:58;;;;;;;32.38;21.38;;;17.80;99.90;;;;;;5086394;28;20093;-74
2022/10/16 05:44:25;;;;;;;30.95;19.98;;;18.00;99.90;;;;;;5053469;28;20498;-72
2022/10/16 05:46:53;;;;;;;27.67;19.20;;;18.10;99.90;;;;;;5086732;28;20555;-72
2022/10/16 05:49:21;;;;;;;30.48;18.33;;;18.20;99.90;;;;;;5085811;28;20048;-71
2022/10/16 05:51:48;;;;;;;28.88;19.83;;;18.40;99.90;;;;;;5086820;28;20374;-70
2022/10/16 05:54:16;;;;;;;27.30;19.05;;;18.50;99.90;;;;;;5070079;28;20817;-73
2022/10/16 05:56:44;;;;;;;31.05;19.08;;;18.60;99.90;;;;;;5070371;28;20569;-71
2022/10/16 05:59:11;;;;;;;29.08;18.98;;;18.70;99.90;;;;;;5069127;28;20131;-71
2022/10/16 06:01:39;;;;;;;26.65;18.98;;;18.80;99.90;;;;;;5086229;28;20056;-71
2022/10/16 06:04:07;;;;;;;43.10;23.45;;;19.10;99.90;;;;;;5088373;28;20197;-70
2022/10/16 06:06:36;;;;;;;46.95;27.25;;;19.20;99.90;;;;;;5086802;28;20385;-70
2022/10/16 06:09:04;;;;;;;42.55;24.17;;;19.40;99.90;;;;;;5086782;28;20048;-72
2022/10/16 06:11:33;;;;;;;51.33;25.20;;;19.70;99.90;;;;;;5087962;28;20047;-72
2022/10/16 06:14:06;;;;;;;45.40;22.30;;;19.90;99.90;;;;;;5087063;28;20123;-70
2022/10/16 06:16:36;;;;;;;48.33;24.55;;;20.20;99.90;;;;;;5070048;28;20639;-72
2022/10/16 06:19:06;;;;;;;44.53;22.27;;;20.50;99.90;;;;;;5086501;28;20068;-70
2022/10/16 06:21:33;;;;;;;42.40;20.73;;;20.80;99.90;;;;;;5086076;28;20032;-70
2022/10/16 06:24:01;;;;;;;38.22;20.30;;;21.20;99.90;;;;;;5086262;28;20489;-77
2022/10/16 06:26:31;;;;;;;30.75;17.77;;;21.60;99.90;;;;;;5087232;28;20036;-71
2022/10/16 06:28:59;;;;;;;36.35;21.42;;;22.10;99.90;;;;;;5086063;28;20559;-72
2022/10/16 06:31:30;;;;;;;32.03;18.08;;;22.60;99.90;;;;;;5068992;28;20090;-72
2022/10/16 06:33:58;;;;;;;28.30;19.42;;;22.90;99.90;;;;;;5088159;28;20052;-72
2022/10/16 06:36:27;;;;;;;26.88;16.67;;;23.30;99.90;;;;;;5086822;28;20105;-72
2022/10/16 06:38:54;;;;;;;23.02;16.92;;;23.40;99.90;;;;;;5086203;28;20387;-71
2022/10/16 06:41:23;;;;;;;29.67;17.27;;;23.50;99.90;;;;;;5069010;28;20101;-74
2022/10/16 06:43:52;;;;;;;28.73;18.00;;;23.30;99.90;;;;;;5086846;28;20052;-71
2022/10/16 06:46:22;;;;;;;26.90;18.65;;;23.30;99.90;;;;;;5085810;28;20048;-73
2022/10/16 06:48:50;;;;;;;34.60;18.38;;;23.20;99.90;;;;;;5085893;28;20048;-75
2022/10/16 06:51:21;;;;;;;24.45;17.17;;;23.20;99.90;;;;;;5085822;28;20056;-70
2022/10/16 06:53:53;;;;;;;29.73;18.35;;;23.20;99.90;;;;;;5086307;28;20873;-75
2022/10/16 06:56:30;;;;;;;23.75;17.13;;;23.20;99.90;;;;;;5070141;28;20503;-72
2022/10/16 06:58:59;;;;;;;24.60;17.20;;;23.40;99.90;;;;;;5086290;28;20501;-72
2022/10/16 07:01:29;;;;;;;27.17;17.65;;;23.40;99.90;;;;;;5068990;28;20055;-70
2022/10/16 07:03:57;;;;;;;24.45;16.30;;;23.30;99.90;;;;;;5086052;28;20137;-71
2022/10/16 07:06:27;;;;;;;26.30;16.90;;;23.40;99.90;;;;;;5085771;28;20494;-71
2022/10/16 07:08:55;;;;;;;21.85;17.23;;;23.30;99.90;;;;;;5085878;28;20184;-72
2022/10/16 07:11:23;;;;;;;27.00;18.73;;;23.30;99.90;;;;;;5084071;28;20413;-72
2022/10/16 07:13:52;;;;;;;29.17;15.77;;;23.20;99.90;;;;;;5086830;28;20498;-71
2022/10/16 07:16:31;;;;;;;28.65;17.20;;;23.20;99.90;;;;;;5084654;28;20446;-69
2022/10/16 07:19:02;;;;;;;24.27;15.73;;;23.20;99.90;;;;;;5086433;28;20055;-68
2022/10/16 07:21:35;;;;;;;23.98;17.02;;;23.20;99.90;;;;;;5084829;28;20093;-71
2022/10/16 07:24:05;;;;;;;26.05;16.52;;;23.20;99.90;;;;;;5086695;28;20111;-72
2022/10/16 07:26:35;;;;;;;27.77;16.75;;;23.20;99.90;;;;;;5084698;28;20044;-76
2022/10/16 07:29:04;;;;;;;26.38;16.63;;;23.30;99.90;;;;;;5068200;28;20409;-71
2022/10/16 07:31:33;;;;;;;25.85;16.42;;;23.30;99.90;;;;;;5084599;28;20577;-68
2022/10/16 07:34:00;;;;;;;20.20;15.15;;;23.40;99.90;;;;;;5068120;28;20058;-71
2022/10/16 07:36:28;;;;;;;24.77;16.63;;;23.40;99.90;;;;;;5067226;28;20474;-70
2022/10/16 07:38:56;;;;;;;20.98;13.77;;;23.50;99.90;;;;;;5068016;28;20470;-69
2022/10/16 07:41:25;;;;;;;22.10;14.77;;;23.50;99.90;;;;;;5084276;28;20498;-69
2022/10/16 07:43:54;;;;;;;20.88;13.52;;;23.60;99.90;;;;;;5084335;28;20514;-71
2022/10/16 07:46:24;;;;;;;24.52;14.98;;;23.60;99.90;;;;;;5084939;28;20036;-71
2022/10/16 07:48:52;;;;;;;21.70;14.18;;;23.70;99.90;;;;;;5086257;28;20044;-71
2022/10/16 07:51:22;;;;;;;22.88;14.57;;;23.70;99.90;;;;;;5068865;28;20115;-69
2022/10/16 07:53:51;;;;;;;23.73;14.77;;;23.80;99.90;;;;;;5086268;28;20452;-69
2022/10/16 07:56:20;;;;;;;21.80;14.68;;;23.80;99.90;;;;;;5084780;28;20063;-77
2022/10/16 07:58:50;;;;;;;21.50;13.63;;;23.90;99.90;;;;;;5084894;28;20492;-70
2022/10/16 08:01:18;;;;;;;17.48;12.45;;;24.00;99.90;;;;;;5084542;28;20167;-71
2022/10/16 08:03:49;;;;;;;18.27;11.98;;;24.00;99.90;;;;;;5085313;28;20668;-69
2022/10/16 08:06:17;;;;;;;15.48;11.30;;;24.10;99.90;;;;;;5084954;28;20422;-71
2022/10/16 08:08:46;;;;;;;16.00;11.02;;;24.10;99.90;;;;;;5068696;28;20047;-69
2022/10/16 08:11:14;;;;;;;16.58;11.70;;;24.10;99.90;;;;;;5084799;28;20118;-70
2022/10/16 08:13:42;;;;;;;13.73;9.63;;;24.10;99.90;;;;;;5067720;28;20447;-69
2022/10/16 08:16:11;;;;;;;14.48;10.15;;;24.00;99.90;;;;;;5084617;28;20520;-70
2022/10/16 08:18:40;;;;;;;10.77;8.70;;;24.10;99.90;;;;;;5084843;28;20095;-70
2022/10/16 08:21:14;;;;;;;13.10;9.65;;;24.10;99.90;;;;;;5086612;28;20048;-70
2022/10/16 08:23:44;;;;;;;13.65;7.80;;;24.10;99.90;;;;;;5054913;28;20142;-72
2022/10/16 08:26:13;;;;;;;12.30;8.20;;;24.20;99.90;;;;;;5072049;28;20075;-71
2022/10/16 08:28:40;;;;;;;15.23;9.27;;;24.20;99.90;;;;;;5071270;28;20197;-70
2022/10/16 08:31:14;;;;;;;15.18;9.75;;;24.20;99.90;;;;;;5071537;28;20063;-74
2022/10/16 08:33:46;;;;;;;15.32;10.55;;;24.20;99.90;;;;;;5088920;28;20044;-71
2022/10/16 08:36:17;;;;;;;14.55;9.63;;;24.20;99.90;;;;;;5088819;28;20075;-72
2022/10/16 08:38:49;;;;;;;13.40;9.48;;;24.20;99.90;;;;;;5088950;28;20040;-74
2022/10/16 08:41:35;;;;;;;14.38;11.13;;;24.30;99.90;;;;;;5087382;28;20125;-72
2022/10/16 08:44:15;;;;;;;13.00;9.20;;;24.30;99.90;;;;;;5088768;28;20116;-73
2022/10/16 08:47:15;;;;;;;17.13;10.07;;;24.30;99.90;;;;;;5087928;28;20039;-69
2022/10/16 08:49:53;;;;;;;13.95;9.38;;;24.40;99.90;;;;;;5087683;28;20585;-69
2022/10/16 08:52:22;;;;;;;16.25;9.55;;;24.20;99.90;;;;;;5070376;28;20119;-74
2022/10/16 08:54:55;;;;;;;13.10;8.95;;;24.00;99.90;;;;;;5087268;28;20040;-73
2022/10/16 08:57:26;;;;;;;12.57;9.15;;;23.70;99.90;;;;;;5086696;28;20370;-69
2022/10/16 09:00:00;;;;;;;11.98;8.48;;;23.50;99.90;;;;;;5087214;28;20044;-70
2022/10/16 09:02:46;;;;;;;13.43;8.38;;;23.50;99.90;;;;;;5087112;28;20143;-71
2022/10/16 09:05:51;;;;;;;13.07;8.32;;;23.60;99.90;;;;;;5070278;28;20474;-74
2022/10/16 09:08:35;;;;;;;10.35;6.95;;;23.70;99.90;;;;;;5088229;28;20044;-69
2022/10/16 09:11:11;;;;;;;9.57;6.30;;;23.70;99.90;;;;;;5088511;28;20439;-71
2022/10/16 09:13:52;;;;;;;10.38;7.75;;;23.90;99.90;;;;;;5071004;28;20039;-71
2022/10/16 09:16:30;;;;;;;9.45;6.90;;;23.80;99.90;;;;;;5070156;28;20385;-72
2022/10/16 09:19:22;;;;;;;10.07;6.97;;;24.00;99.90;;;;;;5070089;28;20208;-71
2022/10/16 09:21:51;;;;;;;10.80;7.03;;;24.10;99.90;;;;;;5086652;28;20406;-68
2022/10/16 09:24:21;;;;;;;9.20;6.18;;;24.30;99.90;;;;;;5086487;28;20054;-73
2022/10/16 09:26:51;;;;;;;10.82;7.22;;;24.30;99.90;;;;;;5070333;28;20122;-68
2022/10/16 09:29:24;;;;;;;10.88;6.55;;;24.30;99.90;;;;;;5053756;28;20051;-69
2022/10/16 09:31:55;;;;;;;10.95;6.82;;;24.40;99.90;;;;;;5068507;28;20433;-69
2022/10/16 09:34:38;;;;;;;9.23;6.30;;;24.50;99.90;;;;;;5085200;28;20048;-73
2022/10/16 09:37:13;;;;;;;10.90;8.35;;;24.40;99.90;;;;;;5086351;28;20131;-70
2022/10/16 09:39:48;;;;;;;11.00;7.55;;;24.40;99.90;;;;;;5070249;28;20054;-70
2022/10/16 09:42:23;;;;;;;12.13;7.35;;;24.20;99.90;;;;;;5085863;28;20063;-74
2022/10/16 09:44:53;;;;;;;10.20;6.95;;;24.20;99.90;;;;;;5069151;28;20093;-70
2022/10/16 09:47:23;;;;;;;10.68;7.70;;;24.20;99.90;;;;;;5069570;28;20044;-72
2022/10/16 09:49:59;;;;;;;9.73;6.72;;;24.30;99.90;;;;;;5086100;28;20055;-71
2022/10/16 09:52:27;;;;;;;11.70;8.07;;;24.30;99.90;;;;;;5087119;28;20052;-71
2022/10/16 09:54:57;;;;;;;12.95;8.07;;;24.30;99.90;;;;;;5068258;28;20293;-70
2022/10/16 09:57:26;;;;;;;12.43;7.53;;;24.40;99.90;;;;;;5085950;28;20055;-71
2022/10/16 09:59:56;;;;;;;12.05;7.72;;;24.40;99.90;;;;;;5087626;28;20040;-70
2022/10/16 10:02:35;;;;;;;14.52;8.27;;;24.40;99.90;;;;;;5085745;28;20044;-70
2022/10/16 10:05:06;;;;;;;13.88;8.88;;;24.30;99.90;;;;;;5069105;28;20044;-70
2022/10/16 10:07:42;;;;;;;12.85;8.68;;;24.30;99.90;;;;;;5069440;28;20048;-68
2022/10/16 10:10:25;;;;;;;12.48;8.95;;;24.30;99.90;;;;;;5088073;28;20490;-72
2022/10/16 10:12:55;;;;;;;11.90;7.93;;;24.20;99.90;;;;;;5088088;28;20099;-69
2022/10/16 10:15:24;;;;;;;13.88;8.30;;;24.30;99.90;;;;;;5086041;28;20168;-70
2022/10/16 10:17:57;;;;;;;11.63;8.70;;;24.20;99.90;;;;;;5086329;28;20573;-69
2022/10/16 10:20:27;;;;;;;14.90;8.15;;;24.10;99.90;;;;;;5087844;28;20379;-72
2022/10/16 10:22:55;;;;;;;12.27;8.75;;;24.10;99.90;;;;;;5069364;28;20402;-68
2022/10/16 10:25:33;;;;;;;13.35;9.00;;;24.10;99.90;;;;;;5085252;28;20505;-69
2022/10/16 10:28:39;;;;;;;12.43;7.68;;;24.10;99.90;;;;;;5085327;28;20563;-69
2022/10/16 10:31:24;;;;;;;10.23;7.47;;;24.10;99.90;;;;;;5053244;28;20055;-69
2022/10/16 10:34:10;;;;;;;11.18;9.27;;;24.10;99.90;;;;;;5086466;28;20044;-70
2022/10/16 10:36:40;;;;;;;13.30;8.27;;;24.20;99.90;;;;;;5069705;28;20052;-70
2022/10/16 10:39:34;;;;;;;16.65;8.85;;;24.30;99.90;;;;;;5052763;28;20088;-69
2022/10/16 10:42:28;;;;;;;11.00;8.00;;;24.30;99.90;;;;;;5085775;28;20048;-70
2022/10/16 10:45:08;;;;;;;13.60;8.82;;;24.20;99.90;;;;;;5085513;28;20071;-69
2022/10/16 10:47:57;;;;;;;12.63;8.73;;;24.20;99.90;;;;;;5069058;28;20044;-71
2022/10/16 10:50:33;;;;;;;11.77;8.63;;;24.30;99.90;;;;;;5069225;28;20056;-71
2022/10/16 10:53:37;;;;;;;13.52;8.55;;;24.20;99.90;;;;;;5086116;28;20052;-69
2022/10/16 10:56:25;;;;;;;12.60;9.20;;;24.10;99.90;;;;;;5086825;28;20059;-70
2022/10/16 10:58:56;;;;;;;12.85;8.50;;;24.10;99.90;;;;;;5069361;28;20048;-71
2022/10/16 11:01:55;;;;;;;13.18;9.05;;;24.10;99.90;;;;;;5085345;28;20320;-72
2022/10/16 11:04:28;;;;;;;11.48;8.98;;;24.00;99.90;;;;;;5085273;28;20418;-77
2022/10/16 11:07:04;;;;;;;12.20;8.52;;;24.10;99.90;;;;;;5085264;28;20452;-69
2022/10/16 11:09:47;;;;;;;10.73;8.27;;;24.00;99.90;;;;;;5085749;28;20109;-69
2022/10/16 11:12:23;;;;;;;13.63;8.43;;;24.00;99.90;;;;;;5085965;28;20093;-74
2022/10/16 11:15:11;;;;;;;15.23;10.45;;;24.00;99.90;;;;;;5085081;28;20134;-71
2022/10/16 11:17:47;;;;;;;12.45;8.57;;;24.00;99.90;;;;;;5086506;28;20055;-68
2022/10/16 11:20:20;;;;;;;11.70;8.57;;;24.00;99.90;;;;;;5051838;28;20781;-72
2022/10/16 11:22:56;;;;;;;12.50;9.07;;;24.00;99.90;;;;;;5084840;28;20024;-70
2022/10/16 11:25:28;;;;;;;;;;;23.90;99.90;;;;;;5085605;28;20040;-69
2022/10/16 11:28:11;;;;;;;13.18;9.65;;;23.90;99.90;;;;;;5067793;28;19924;-71
2022/10/16 11:31:03;;;;;;;14.82;8.95;;;24.00;99.90;;;;;;5051569;28;20056;-73
2022/10/16 11:33:35;;;;;;;13.05;9.15;;;23.70;99.90;;;;;;5086032;28;20048;-69
2022/10/16 11:36:27;;;;;;;13.30;9.43;;;23.60;99.90;;;;;;5084390;28;20545;-70
2022/10/16 11:38:57;;;;;;;13.82;9.52;;;23.60;99.90;;;;;;5085791;28;20040;-71
2022/10/16 11:41:49;;;;;;;14.65;10.60;;;23.50;99.90;;;;;;5085009;28;20119;-69
2022/10/16 11:44:39;;;;;;;13.68;8.85;;;23.50;99.90;;;;;;5084739;28;20378;-71
2022/10/16 11:47:28;;;;;;;12.73;9.68;;;23.40;99.90;;;;;;5086722;28;20105;-70
2022/10/16 11:50:50;;;;;;;11.93;8.85;;;23.40;99.90;;;;;;5084961;28;20044;-76
2022/10/16 11:53:45;;;;;;;14.70;9.73;;;23.40;99.90;;;;;;5084309;28;20079;-71
2022/10/16 11:56:17;;;;;;;15.13;10.43;;;23.40;99.90;;;;;;5083909;28;20086;-72
2022/10/16 11:58:59;;;;;;;13.68;9.45;;;23.40;99.90;;;;;;5084082;28;20076;-69
2022/10/16 12:01:52;;;;;;;14.80;10.88;;;23.40;99.90;;;;;;5084185;28;20149;-71
2022/10/16 12:04:39;;;;;;;17.95;10.35;;;23.40;99.90;;;;;;5050751;28;20048;-69
2022/10/16 12:07:11;;;;;;;14.20;9.60;;;23.30;99.90;;;;;;5084737;28;20695;-69
2022/10/16 12:09:41;;;;;;;15.43;10.38;;;23.40;99.90;;;;;;5067277;28;20047;-74
2022/10/16 12:12:39;;;;;;;13.77;9.95;;;23.40;99.90;;;;;;5086123;28;20044;-76
2022/10/16 12:15:27;;;;;;;14.13;10.30;;;23.50;99.90;;;;;;5068159;28;20097;-71
2022/10/16 12:18:01;;;;;;;14.98;10.90;;;23.40;99.90;;;;;;5085402;28;20052;-70
2022/10/16 12:20:32;;;;;;;16.67;10.20;;;23.50;99.90;;;;;;5085077;28;20054;-71
2022/10/16 12:23:05;;;;;;;12.82;8.95;;;23.40;99.90;;;;;;5083566;28;20766;-69
2022/10/16 12:25:46;;;;;;;16.13;9.98;;;23.30;99.90;;;;;;5084854;28;20052;-69
2022/10/16 12:28:16;;;;;;;13.88;9.50;;;23.20;99.90;;;;;;5084064;28;20041;-70
2022/10/16 12:30:54;;;;;;;13.75;9.90;;;23.20;99.90;;;;;;5083835;28;20067;-72
2022/10/16 12:33:26;;;;;;;14.15;9.88;;;23.10;99.90;;;;;;5084519;28;20116;-78
2022/10/16 12:35:55;;;;;;;15.35;10.32;;;23.10;99.90;;;;;;5085901;28;20044;-72
2022/10/16 12:38:30;;;;;;;13.60;10.05;;;23.10;99.90;;;;;;5068126;28;20459;-70
2022/10/16 12:41:06;;;;;;;15.53;10.40;;;23.00;99.90;;;;;;5086240;28;20044;-71
2022/10/16 12:43:45;;;;;;;12.07;8.90;;;23.00;99.90;;;;;;5066840;28;20416;-73
2022/10/16 12:46:13;;;;;;;10.60;8.57;;;22.90;99.90;;;;;;5085256;28;20135;-70
2022/10/16 12:48:44;;;;;;;14.43;8.80;;;23.00;99.90;;;;;;5067548;28;20054;-73
2022/10/16 12:51:35;;;;;;;11.73;8.05;;;23.00;99.90;;;;;;5083716;28;20058;-70
2022/10/16 12:54:11;;;;;;;13.95;8.60;;;23.00;99.90;;;;;;5050358;28;20097;-70
2022/10/16 12:56:59;;;;;;;11.65;7.75;;;22.90;99.90;;;;;;5084436;28;20127;-69
2022/10/16 12:59:48;;;;;;;11.27;7.60;;;22.90;99.90;;;;;;5083990;28;20048;-70
2022/10/16 13:02:35;;;;;;;12.40;8.38;;;22.70;99.90;;;;;;5050667;28;20133;-78